createdAt,value
2018-01-28T00:02:09.606Z,7.93
2018-01-28T00:04:38.087Z,6.43
2018-01-28T00:07:06.504Z,7.10
2018-01-28T00:09:34.895Z,7.30
2018-01-28T00:12:03.331Z,7.53
2018-01-28T00:14:31.731Z,6.03
2018-01-28T00:17:00.154Z,6.90
2018-01-28T00:19:28.621Z,7.10
2018-01-28T00:21:57.073Z,6.90
2018-01-28T00:24:25.454Z,4.47
2018-01-28T00:26:53.891Z,6.27
2018-01-28T00:29:22.289Z,6.13
2018-01-28T00:31:50.710Z,6.07
2018-01-28T00:34:19.149Z,5.23
2018-01-28T00:36:47.598Z,5.87
2018-01-28T00:39:15.995Z,4.97
2018-01-28T00:41:44.435Z,6.33
2018-01-28T00:44:12.821Z,6.30
2018-01-28T00:46:41.218Z,4.77
2018-01-28T00:49:09.660Z,5.03
2018-01-28T00:51:38.058Z,5.13
2018-01-28T00:54:06.461Z,4.60
2018-01-28T00:56:34.940Z,6.00
2018-01-28T00:59:03.375Z,5.87
2018-01-28T01:01:31.838Z,5.53
2018-01-28T01:04:00.295Z,6.10
2018-01-28T01:06:28.705Z,7.00
2018-01-28T01:08:57.081Z,6.70
2018-01-28T01:11:25.530Z,5.87
2018-01-28T01:13:53.910Z,7.63
2018-01-28T01:16:22.334Z,7.93
2018-01-28T01:18:50.767Z,7.77
2018-01-28T01:21:19.170Z,6.73
2018-01-28T01:23:47.570Z,7.20
2018-01-28T01:26:16.016Z,7.47
2018-01-28T01:28:44.424Z,7.03
2018-01-28T01:31:12.825Z,6.13
2018-01-28T01:33:41.278Z,8.30
2018-01-28T01:36:09.697Z,7.60
2018-01-28T01:38:38.106Z,6.33
2018-01-28T01:41:06.541Z,7.40
2018-01-28T01:43:34.943Z,7.23
2018-01-28T01:46:03.355Z,8.10
2018-01-28T01:48:31.835Z,8.03
2018-01-28T01:51:00.240Z,5.73
2018-01-28T01:53:28.646Z,5.00
2018-01-28T01:55:57.129Z,6.87
2018-01-28T01:58:25.521Z,5.07
2018-01-28T02:00:53.943Z,7.20
2018-01-28T02:03:22.410Z,7.90
2018-01-28T02:05:50.819Z,6.43
2018-01-28T02:08:19.243Z,7.90
2018-01-28T02:10:47.691Z,6.03
2018-01-28T02:13:16.077Z,6.30
2018-01-28T02:15:44.461Z,7.30
2018-01-28T02:18:12.948Z,5.70
2018-01-28T02:20:41.403Z,6.93
2018-01-28T02:23:09.845Z,6.47
2018-01-28T02:25:38.344Z,6.27
2018-01-28T02:28:06.765Z,6.40
2018-01-28T02:30:35.158Z,5.80
2018-01-28T02:33:03.579Z,6.27
2018-01-28T02:35:31.992Z,8.03
2018-01-28T02:38:00.439Z,6.37
2018-01-28T02:40:28.878Z,7.43
2018-01-28T02:42:57.348Z,7.30
2018-01-28T02:45:25.796Z,7.33
2018-01-28T02:47:54.278Z,7.23
2018-01-28T02:50:22.857Z,7.33
2018-01-28T02:52:51.287Z,6.37
2018-01-28T02:55:19.754Z,6.10
2018-01-28T02:57:48.209Z,5.57
2018-01-28T03:00:16.597Z,5.70
2018-01-28T03:02:45.074Z,6.27
2018-01-28T03:05:13.467Z,6.13
2018-01-28T03:07:41.905Z,6.83
2018-01-28T03:10:10.388Z,5.37
2018-01-28T03:12:38.821Z,6.40
2018-01-28T03:15:07.214Z,5.20
2018-01-28T03:17:35.668Z,6.33
2018-01-28T03:20:04.187Z,6.27
2018-01-28T03:22:32.586Z,5.30
2018-01-28T03:25:01.031Z,5.23
2018-01-28T03:27:29.411Z,6.17
2018-01-28T03:29:57.809Z,5.00
2018-01-28T03:32:26.277Z,4.40
2018-01-28T03:34:54.747Z,6.80
2018-01-28T03:37:23.220Z,5.07
2018-01-28T03:39:51.646Z,4.67
2018-01-28T03:42:20.088Z,5.80
2018-01-28T03:44:48.496Z,3.67
2018-01-28T03:47:17.155Z,6.03
2018-01-28T03:49:45.575Z,3.17
2018-01-28T03:52:13.980Z,3.20
2018-01-28T03:54:42.422Z,3.73
2018-01-28T03:57:10.816Z,4.10
2018-01-28T03:59:39.206Z,3.20
2018-01-28T04:02:07.688Z,3.57
2018-01-28T04:04:36.091Z,2.70
2018-01-28T04:07:04.598Z,3.93
2018-01-28T04:09:33.037Z,2.40
2018-01-28T04:12:01.451Z,3.30
2018-01-28T04:14:29.841Z,2.50
2018-01-28T04:16:58.312Z,2.83
2018-01-28T04:19:26.702Z,2.50
2018-01-28T04:21:55.098Z,2.27
2018-01-28T04:24:23.541Z,2.00
2018-01-28T04:26:51.934Z,1.83
2018-01-28T04:29:20.347Z,1.80
2018-01-28T04:31:48.834Z,1.70
2018-01-28T04:34:17.239Z,1.37
2018-01-28T04:36:45.650Z,1.80
2018-01-28T04:39:14.097Z,2.23
2018-01-28T04:41:42.500Z,1.80
2018-01-28T04:44:10.896Z,1.50
2018-01-28T04:46:39.350Z,1.40
2018-01-28T04:49:07.749Z,1.40
2018-01-28T04:51:36.141Z,2.20
2018-01-28T04:54:04.597Z,1.73
2018-01-28T04:56:32.985Z,2.00
2018-01-28T04:59:01.447Z,1.77
2018-01-28T05:01:30.307Z,1.70
2018-01-28T05:03:58.754Z,1.63
2018-01-28T05:06:27.167Z,2.27
2018-01-28T05:08:55.646Z,2.10
2018-01-28T05:11:24.105Z,2.00
2018-01-28T05:13:52.528Z,2.10
2018-01-28T05:16:20.985Z,2.50
2018-01-28T05:18:49.389Z,3.50
2018-01-28T05:21:18.751Z,3.50
2018-01-28T05:23:47.239Z,2.50
2018-01-28T05:26:15.671Z,3.17
2018-01-28T05:28:44.094Z,5.77
2018-01-28T05:31:12.796Z,3.00
2018-01-28T05:33:41.222Z,3.93
2018-01-28T05:36:09.652Z,4.57
2018-01-28T05:38:38.093Z,4.33
2018-01-28T05:41:06.495Z,3.80
2018-01-28T05:43:34.923Z,3.97
2018-01-28T05:46:03.376Z,4.80
2018-01-28T05:48:31.816Z,3.70
2018-01-28T05:51:00.220Z,6.00
2018-01-28T05:53:28.719Z,7.57
2018-01-28T05:55:57.112Z,4.43
2018-01-28T05:58:25.553Z,4.67
2018-01-28T06:00:54.006Z,8.43
2018-01-28T06:03:22.419Z,5.50
2018-01-28T06:05:50.832Z,4.80
2018-01-28T06:08:19.302Z,5.83
2018-01-28T06:10:47.738Z,6.53
2018-01-28T06:13:16.162Z,8.57
2018-01-28T06:15:44.631Z,7.10
2018-01-28T06:18:13.050Z,6.83
2018-01-28T06:20:41.470Z,6.70
2018-01-28T06:23:10.031Z,8.50
2018-01-28T06:25:38.426Z,9.30
2018-01-28T06:28:06.829Z,8.73
2018-01-28T06:30:35.506Z,8.23
2018-01-28T06:33:03.945Z,8.57
2018-01-28T06:35:32.399Z,10.10
2018-01-28T06:38:00.839Z,8.07
2018-01-28T06:40:29.246Z,11.73
2018-01-28T06:42:57.677Z,9.87
2018-01-28T06:45:26.337Z,11.40
2018-01-28T06:47:54.759Z,10.90
2018-01-28T06:50:23.175Z,13.47
2018-01-28T06:52:51.641Z,11.83
2018-01-28T06:55:20.042Z,12.77
2018-01-28T06:57:48.446Z,11.87
2018-01-28T07:00:16.934Z,14.97
2018-01-28T07:02:45.352Z,15.97
2018-01-28T07:05:13.756Z,12.03
2018-01-28T07:07:42.202Z,13.93
2018-01-28T07:10:10.639Z,12.40
2018-01-28T07:12:39.084Z,13.93
2018-01-28T07:15:07.549Z,12.97
2018-01-28T07:17:35.957Z,13.20
2018-01-28T07:20:04.407Z,14.03
2018-01-28T07:22:32.850Z,12.70
2018-01-28T07:25:01.269Z,13.90
2018-01-28T07:27:29.691Z,13.63
2018-01-28T07:29:58.129Z,15.90
2018-01-28T07:32:26.575Z,14.93
2018-01-28T07:34:55.030Z,11.30
2018-01-28T07:37:23.540Z,14.83
2018-01-28T07:39:51.964Z,12.47
2018-01-28T07:42:20.408Z,12.90
2018-01-28T07:44:48.897Z,12.90
2018-01-28T07:47:17.302Z,11.90
2018-01-28T07:49:45.711Z,13.17
2018-01-28T07:52:14.188Z,12.50
2018-01-28T07:54:42.649Z,15.10
2018-01-28T07:57:11.093Z,13.90
2018-01-28T07:59:39.873Z,12.73
2018-01-28T08:02:08.363Z,17.27
2018-01-28T08:04:36.821Z,12.20
2018-01-28T08:07:05.291Z,14.20
2018-01-28T08:09:33.721Z,10.33
2018-01-28T08:12:13.836Z,10.00
2018-01-28T08:14:42.298Z,9.93
2018-01-28T08:17:10.709Z,10.23
2018-01-28T08:19:39.335Z,10.97
2018-01-28T08:22:07.782Z,11.93
2018-01-28T08:24:36.238Z,12.90
2018-01-28T08:27:14.637Z,10.60
2018-01-28T08:29:43.070Z,13.37
2018-01-28T08:32:11.500Z,9.27
2018-01-28T08:34:40.000Z,9.53
2018-01-28T08:37:08.428Z,10.60
2018-01-28T08:39:36.874Z,10.47
2018-01-28T08:42:05.320Z,10.03
2018-01-28T08:44:33.732Z,10.30
2018-01-28T08:47:02.197Z,10.00
2018-01-28T08:52:05.471Z,10.67
2018-01-28T08:54:33.910Z,10.60
2018-01-28T08:57:02.323Z,11.87
2018-01-28T08:59:30.770Z,11.57
2018-01-28T09:01:59.253Z,7.60
2018-01-28T09:04:27.660Z,9.63
2018-01-28T09:06:56.047Z,9.40
2018-01-28T09:09:24.498Z,11.40
2018-01-28T09:11:52.903Z,12.10
2018-01-28T09:14:21.311Z,9.90
2018-01-28T09:16:49.760Z,10.87
2018-01-28T09:19:18.169Z,13.33
2018-01-28T09:21:46.575Z,12.17
2018-01-28T09:24:15.043Z,12.50
2018-01-28T09:26:43.462Z,12.47
2018-01-28T09:29:11.890Z,16.63
2018-01-28T09:31:40.334Z,15.60
2018-01-28T09:34:08.755Z,12.30
2018-01-28T09:36:37.180Z,13.03
2018-01-28T09:39:05.865Z,14.50
2018-01-28T09:41:34.390Z,13.03
2018-01-28T09:44:02.802Z,16.20
2018-01-28T09:46:31.246Z,13.50
2018-01-28T09:48:59.684Z,13.57
2018-01-28T09:51:28.128Z,12.93
2018-01-28T09:53:56.571Z,13.87
2018-01-28T09:56:25.012Z,10.93
2018-01-28T09:58:53.417Z,14.60
2018-01-28T10:01:21.875Z,13.57
2018-01-28T10:03:50.281Z,14.00
2018-01-28T10:06:18.670Z,14.00
2018-01-28T10:08:47.109Z,14.07
2018-01-28T10:11:15.516Z,16.10
2018-01-28T10:13:43.928Z,18.37
2018-01-28T10:16:12.390Z,14.30
2018-01-28T10:18:40.791Z,17.07
2018-01-28T10:21:09.195Z,14.83
2018-01-28T10:23:37.634Z,14.27
2018-01-28T10:26:06.063Z,17.60
2018-01-28T10:28:34.475Z,15.93
2018-01-28T10:31:02.925Z,19.10
2018-01-28T10:33:31.356Z,15.37
2018-01-28T10:35:59.756Z,19.83
2018-01-28T10:38:28.264Z,18.87
2018-01-28T10:40:56.676Z,19.50
2018-01-28T10:43:25.115Z,19.97
2018-01-28T10:45:53.571Z,17.87
2018-01-28T10:48:21.970Z,15.13
2018-01-28T10:50:51.362Z,14.90
2018-01-28T10:53:20.822Z,21.40
2018-01-28T10:55:49.222Z,18.27
2018-01-28T10:58:17.633Z,19.73
2018-01-28T11:00:46.103Z,18.03
2018-01-28T11:03:14.530Z,15.03
2018-01-28T11:05:42.956Z,15.43
2018-01-28T11:08:11.415Z,20.30
2018-01-28T11:10:39.807Z,17.03
2018-01-28T11:13:08.194Z,20.33
2018-01-28T11:15:36.678Z,17.77
2018-01-28T11:18:05.136Z,15.60
2018-01-28T11:20:33.560Z,16.73
2018-01-28T11:23:02.050Z,17.87
2018-01-28T11:25:30.463Z,17.33
2018-01-28T11:27:58.870Z,19.47
2018-01-28T11:30:27.319Z,22.77
2018-01-28T11:32:55.717Z,21.40
2018-01-28T11:35:24.151Z,19.03
2018-01-28T11:37:52.605Z,19.70
2018-01-28T11:40:21.085Z,18.67
2018-01-28T11:42:49.486Z,17.77
2018-01-28T11:45:17.937Z,17.03
2018-01-28T11:47:46.339Z,18.50
2018-01-28T11:50:14.738Z,16.90
2018-01-28T11:52:43.184Z,15.70
2018-01-28T11:55:11.591Z,14.63
2018-01-28T11:57:40.021Z,17.93
2018-01-28T12:00:08.566Z,17.07
2018-01-28T12:02:37.008Z,18.20
2018-01-28T12:05:05.430Z,16.87
2018-01-28T12:07:33.926Z,18.27
2018-01-28T12:10:02.333Z,16.60
2018-01-28T12:12:30.740Z,19.93
2018-01-28T12:14:59.218Z,17.97
2018-01-28T12:17:27.667Z,16.00
2018-01-28T12:19:56.070Z,21.90
2018-01-28T12:22:24.566Z,18.63
2018-01-28T12:24:53.059Z,21.53
2018-01-28T12:27:21.474Z,21.03
2018-01-28T12:29:49.926Z,21.57
2018-01-28T12:32:18.388Z,22.00
2018-01-28T12:34:46.828Z,21.27
2018-01-28T12:37:15.332Z,22.97
2018-01-28T12:39:43.771Z,20.90
2018-01-28T12:42:12.216Z,21.57
2018-01-28T12:44:40.683Z,21.63
2018-01-28T12:47:09.099Z,20.97
2018-01-28T12:49:37.516Z,21.30
2018-01-28T12:52:06.007Z,20.53
2018-01-28T12:54:34.457Z,18.43
2018-01-28T12:57:02.869Z,23.70
2018-01-28T12:59:31.323Z,20.90
2018-01-28T13:01:59.723Z,20.03
2018-01-28T13:04:28.160Z,20.43
2018-01-28T13:06:56.647Z,22.60
2018-01-28T13:09:25.098Z,21.57
2018-01-28T13:11:53.563Z,22.33
2018-01-28T13:14:22.031Z,21.40
2018-01-28T13:16:50.437Z,24.77
2018-01-28T13:19:18.884Z,21.73
2018-01-28T13:21:47.326Z,23.40
2018-01-28T13:24:15.733Z,24.67
2018-01-28T13:26:44.156Z,20.90
2018-01-28T13:29:12.639Z,23.50
2018-01-28T13:31:41.119Z,22.00
2018-01-28T13:34:09.563Z,22.30
2018-01-28T13:36:38.055Z,20.67
2018-01-28T13:39:06.519Z,24.60
2018-01-28T13:41:34.918Z,19.03
2018-01-28T13:44:03.408Z,22.90
2018-01-28T13:46:31.842Z,23.27
2018-01-28T13:49:00.300Z,24.53
2018-01-28T13:51:28.766Z,22.67
2018-01-28T13:53:57.178Z,19.43
2018-01-28T13:56:25.630Z,23.43
2018-01-28T13:58:54.083Z,25.00
2018-01-28T14:01:22.546Z,23.20
2018-01-28T14:03:50.954Z,21.10
2018-01-28T14:06:19.451Z,21.40
2018-01-28T14:08:47.870Z,23.10
2018-01-28T14:11:16.272Z,24.80
2018-01-28T14:13:44.731Z,20.97
2018-01-28T14:16:13.475Z,21.60
2018-01-28T14:18:41.913Z,20.93
2018-01-28T14:21:10.358Z,22.10
2018-01-28T14:23:38.758Z,23.30
2018-01-28T14:26:07.168Z,21.90
2018-01-28T14:28:35.637Z,21.33
2018-01-28T14:31:04.590Z,23.27
2018-01-28T14:33:33.025Z,21.00
2018-01-28T14:36:01.461Z,26.93
2018-01-28T14:38:29.878Z,22.83
2018-01-28T14:40:58.285Z,25.67
2018-01-28T14:43:26.796Z,20.43
2018-01-28T14:45:55.234Z,22.13
2018-01-28T14:48:23.682Z,21.30
2018-01-28T14:50:52.179Z,24.83
2018-01-28T14:53:20.586Z,20.20
2018-01-28T14:55:49.000Z,27.17
2018-01-28T14:58:17.496Z,23.73
2018-01-28T15:00:45.923Z,24.77
2018-01-28T15:03:14.345Z,21.33
2018-01-28T15:05:42.815Z,23.20
2018-01-28T15:08:11.229Z,20.00
2018-01-28T15:10:39.629Z,25.23
2018-01-28T15:13:08.086Z,21.50
2018-01-28T15:15:36.512Z,24.20
2018-01-28T15:18:04.921Z,25.57
2018-01-28T15:20:33.374Z,23.23
2018-01-28T15:23:01.795Z,20.87
2018-01-28T15:25:30.244Z,21.37
2018-01-28T15:27:58.702Z,22.40
2018-01-28T15:30:27.124Z,26.30
2018-01-28T15:32:55.533Z,23.03
2018-01-28T15:35:24.017Z,27.67
2018-01-28T15:37:52.472Z,21.00
2018-01-28T15:40:20.896Z,22.00
2018-01-28T15:42:49.371Z,23.50
2018-01-28T15:45:17.808Z,23.03
2018-01-28T15:47:46.236Z,22.93
2018-01-28T15:50:14.725Z,21.77
2018-01-28T15:52:43.203Z,25.00
2018-01-28T15:55:11.637Z,22.93
2018-01-28T15:57:40.151Z,20.17
2018-01-28T16:00:08.602Z,20.83
2018-01-28T16:02:37.026Z,29.60
2018-01-28T16:05:05.502Z,25.07
2018-01-28T16:07:33.923Z,23.73
2018-01-28T16:10:02.348Z,26.43
2018-01-28T16:12:31.090Z,18.73
2018-01-28T16:14:59.532Z,23.67
2018-01-28T16:17:28.060Z,21.50
2018-01-28T16:19:56.551Z,18.17
2018-01-28T16:22:24.987Z,19.90
2018-01-28T16:24:53.403Z,21.20
2018-01-28T16:27:21.866Z,21.07
2018-01-28T16:29:50.295Z,19.17
2018-01-28T16:32:18.737Z,16.37
2018-01-28T16:34:47.202Z,18.83
2018-01-28T16:37:15.607Z,15.60
2018-01-28T16:39:44.023Z,17.00
2018-01-28T16:42:12.524Z,17.90
2018-01-28T16:44:40.990Z,15.80
2018-01-28T16:47:09.422Z,20.23
2018-01-28T16:49:37.896Z,16.83
2018-01-28T16:52:06.293Z,17.73
2018-01-28T16:57:09.308Z,16.33
2018-01-28T16:59:37.752Z,17.33
2018-01-28T17:02:06.179Z,16.33
2018-01-28T17:04:34.629Z,14.90
2018-01-28T17:07:03.031Z,17.17
2018-01-28T17:09:31.433Z,18.37
2018-01-28T17:11:59.891Z,14.90
2018-01-28T17:14:28.340Z,21.20
2018-01-28T17:16:56.800Z,17.30
2018-01-28T17:19:25.246Z,18.50
2018-01-28T17:21:53.650Z,18.83
2018-01-28T17:24:22.075Z,15.30
2018-01-28T17:26:50.556Z,13.17
2018-01-28T17:29:19.032Z,16.17
2018-01-28T17:31:47.466Z,15.77
2018-01-28T17:34:15.943Z,13.40
2018-01-28T17:36:44.375Z,16.20
2018-01-28T17:39:13.066Z,17.10
2018-01-28T17:41:41.539Z,15.87
2018-01-28T17:44:09.988Z,15.60
2018-01-28T17:46:38.423Z,12.77
2018-01-28T17:49:06.890Z,13.60
2018-01-28T17:51:35.334Z,12.07
2018-01-28T17:54:03.811Z,13.77
2018-01-28T17:56:32.436Z,12.00
2018-01-28T17:59:00.876Z,10.47
2018-01-28T18:01:29.326Z,10.63
2018-01-28T18:03:57.779Z,14.07
2018-01-28T18:06:26.205Z,11.27
2018-01-28T18:08:54.620Z,14.17
2018-01-28T18:11:23.077Z,11.40
2018-01-28T18:13:51.506Z,11.17
2018-01-28T18:16:20.627Z,13.00
2018-01-28T18:18:49.107Z,10.33
2018-01-28T18:21:17.513Z,10.57
2018-01-28T18:23:45.992Z,14.43
2018-01-28T18:26:14.453Z,11.53
2018-01-28T18:28:42.915Z,12.33
2018-01-28T18:31:11.355Z,13.90
2018-01-28T18:33:39.831Z,12.20
2018-01-28T18:36:08.224Z,12.97
2018-01-28T18:38:36.661Z,10.67
2018-01-28T18:41:05.155Z,9.27
2018-01-28T18:43:33.590Z,13.10
2018-01-28T18:46:02.005Z,14.40
2018-01-28T18:48:30.479Z,10.40
2018-01-28T18:50:58.935Z,16.60
2018-01-28T18:53:27.392Z,12.07
2018-01-28T18:55:55.900Z,11.30
2018-01-28T18:58:24.296Z,11.97
2018-01-28T19:00:52.739Z,11.07
2018-01-28T19:03:21.188Z,12.47
2018-01-28T19:05:49.632Z,14.00
2018-01-28T19:08:18.040Z,11.53
2018-01-28T19:10:46.510Z,12.00
2018-01-28T19:13:14.954Z,18.57
2018-01-28T19:15:43.354Z,15.47
2018-01-28T19:18:11.915Z,15.20
2018-01-28T19:20:40.314Z,13.67
2018-01-28T19:23:08.772Z,16.57
2018-01-28T19:25:37.251Z,20.60
2018-01-28T19:28:05.671Z,20.63
2018-01-28T19:30:34.127Z,18.80
2018-01-28T19:33:02.882Z,17.87
2018-01-28T19:35:31.307Z,23.23
2018-01-28T19:37:59.746Z,23.67
2018-01-28T19:40:28.222Z,20.90
2018-01-28T19:42:56.652Z,19.63
2018-01-28T19:45:25.087Z,21.57
2018-01-28T19:47:53.558Z,20.90
2018-01-28T19:50:22.022Z,20.80
2018-01-28T19:52:50.440Z,26.97
2018-01-28T19:55:18.937Z,23.97
2018-01-28T19:57:47.395Z,26.70
2018-01-28T20:00:15.818Z,26.50
2018-01-28T20:02:44.288Z,25.67
2018-01-28T20:05:12.698Z,28.70
2018-01-28T20:07:41.130Z,30.87
2018-01-28T20:10:10.494Z,34.43
2018-01-28T20:12:38.951Z,36.73
2018-01-28T20:15:07.407Z,36.73
2018-01-28T20:17:35.893Z,32.67
2018-01-28T20:20:04.324Z,32.43
2018-01-28T20:22:32.755Z,34.03
2018-01-28T20:25:01.284Z,35.80
2018-01-28T20:27:29.700Z,37.93
2018-01-28T20:29:58.108Z,37.33
2018-01-28T20:32:26.567Z,38.37
2018-01-28T20:34:54.963Z,35.27
2018-01-28T20:37:23.362Z,32.00
2018-01-28T20:39:51.796Z,34.47
2018-01-28T20:42:20.224Z,35.13
2018-01-28T20:44:48.667Z,32.10
2018-01-28T20:47:17.103Z,34.93
2018-01-28T20:49:45.536Z,31.77
2018-01-28T20:52:13.962Z,35.80
2018-01-28T20:54:42.434Z,38.10
2018-01-28T20:57:10.899Z,32.37
2018-01-28T20:59:39.306Z,32.80
2018-01-28T21:02:07.802Z,27.83
2018-01-28T21:04:36.252Z,30.67
2018-01-28T21:07:04.712Z,27.50
2018-01-28T21:09:33.199Z,29.40
2018-01-28T21:12:01.593Z,27.63
2018-01-28T21:14:30.011Z,30.30
2018-01-28T21:16:58.570Z,28.53
2018-01-28T21:19:26.982Z,23.93
2018-01-28T21:21:55.390Z,24.97
2018-01-28T21:24:23.964Z,27.97
2018-01-28T21:26:52.438Z,26.23
2018-01-28T21:29:20.888Z,24.53
2018-01-28T21:31:49.339Z,27.83
2018-01-28T21:34:17.783Z,24.40
2018-01-28T21:36:46.218Z,25.03
2018-01-28T21:39:14.668Z,21.87
2018-01-28T21:41:43.109Z,24.43
2018-01-28T21:44:11.506Z,21.27
2018-01-28T21:46:39.941Z,20.67
2018-01-28T21:49:08.374Z,21.97
2018-01-28T21:51:36.796Z,22.80
2018-01-28T21:54:05.238Z,22.40
2018-01-28T21:56:33.663Z,20.57
2018-01-28T21:59:02.150Z,21.17
2018-01-28T22:01:30.608Z,17.43
2018-01-28T22:03:59.015Z,17.30
2018-01-28T22:06:27.425Z,19.77
2018-01-28T22:08:55.936Z,17.87
2018-01-28T22:11:24.339Z,18.53
2018-01-28T22:13:52.786Z,16.17
2018-01-28T22:16:21.275Z,14.83
2018-01-28T22:18:49.708Z,19.03
2018-01-28T22:21:18.122Z,14.60
2018-01-28T22:23:46.556Z,17.57
2018-01-28T22:26:14.990Z,14.57
2018-01-28T22:28:43.406Z,12.87
2018-01-28T22:31:11.838Z,14.50
2018-01-28T22:33:40.272Z,13.40
2018-01-28T22:36:08.702Z,13.83
2018-01-28T22:38:37.204Z,12.60
2018-01-28T22:41:05.607Z,15.80
2018-01-28T22:43:34.019Z,16.13
2018-01-28T22:46:02.473Z,12.93
2018-01-28T22:48:30.866Z,13.63
2018-01-28T22:50:59.292Z,12.60
2018-01-28T22:53:27.735Z,12.43
2018-01-28T22:55:56.141Z,11.27
2018-01-28T22:58:24.572Z,10.63
2018-01-28T23:00:53.039Z,13.17
2018-01-28T23:03:21.459Z,9.73
2018-01-28T23:05:49.895Z,10.07
2018-01-28T23:08:18.365Z,9.80
2018-01-28T23:10:46.769Z,9.70
2018-01-28T23:13:15.186Z,9.83
2018-01-28T23:15:43.711Z,8.07
2018-01-28T23:18:12.101Z,8.37
2018-01-28T23:20:40.511Z,8.67
2018-01-28T23:23:09.254Z,8.50
2018-01-28T23:25:37.703Z,7.30
2018-01-28T23:28:06.115Z,7.50
2018-01-28T23:30:34.575Z,7.77
2018-01-28T23:33:03.057Z,8.20
2018-01-28T23:35:31.474Z,7.47
2018-01-28T23:38:00.059Z,6.20
2018-01-28T23:40:28.449Z,6.63
2018-01-28T23:42:56.870Z,6.87
2018-01-28T23:45:25.315Z,7.97
2018-01-28T23:47:53.734Z,5.70
2018-01-28T23:50:22.127Z,5.73
2018-01-28T23:52:50.587Z,5.60
2018-01-28T23:55:19.018Z,4.87
2018-01-28T23:57:47.402Z,5.53
